Portada
METAR-TAF:

METAR-TAF

Aeropuertos :

Illinois Valley Regional Airport (Walter A. Duncan Field)

Peru / LaSalle, Illinois, Estados Unidos

latitud: 41-21-07N, longitud: 089-09-11W, altitud: 199 m

Observación

El informe se hizo hace 47 minutos, a las 19:35 UTC
Viento 7 kt del suroeste con ráfagas de 14 kt
Temperatura 32°C
Humedad 46%
Presión 1022 hPa
Visibilidad: 16.1 km
Cielo despejado

METAR: KVYS 191935Z AUTO 23007G14KT 10SM CLR 32/19 A3019 RMK AO2 T03200186

Hora: 15:22 (20:22 UTC)


TAF: falta

Observaciones y pronósticos meteorológicos de más de 4000 aeropuertos (mensajes METAR y TAF).

Los puntos amarillos y rojos representan las estaciones disponibles.

Ponga el ratón en el punto deseado para ver el nombre de la estación.

Haga clic para ver las observaciones y los pronósticos meteorológicos.

Para cambiar el mapa : haga clic en los botones verdes con una cruz de color negro para hacer un zoom, en el botón verde con un guión para alejar o en las flechas verdes para mapas adyacentes.


METAR-TAF: